sensor_id;sensor_type;location;lat;lon;timestamp;pressure;altitude;pressure_sealevel;temperature;humidity
1472;BME280;963;42.644;23.336;2023-06-22T00:01:14;94601.09;;;21.44;65.80
1472;BME280;963;42.644;23.336;2023-06-22T00:03:39;94611.88;;;21.40;66.79
1472;BME280;963;42.644;23.336;2023-06-22T00:06:05;94598.84;;;21.42;67.40
1472;BME280;963;42.644;23.336;2023-06-22T00:08:30;94623.47;;;21.53;67.45
1472;BME280;963;42.644;23.336;2023-06-22T00:10:55;94605.56;;;21.50;66.64
1472;BME280;963;42.644;23.336;2023-06-22T00:13:21;94607.56;;;21.46;66.87
1472;BME280;963;42.644;23.336;2023-06-22T00:15:46;94607.63;;;21.43;66.86
1472;BME280;963;42.644;23.336;2023-06-22T00:18:12;94606.19;;;21.38;67.09
1472;BME280;963;42.644;23.336;2023-06-22T00:20:38;94603.81;;;21.24;67.94
1472;BME280;963;42.644;23.336;2023-06-22T00:23:06;94603.72;;;21.08;69.07
1472;BME280;963;42.644;23.336;2023-06-22T00:25:37;94590.06;;;21.22;69.00
1472;BME280;963;42.644;23.336;2023-06-22T00:28:05;94586.59;;;21.25;68.81
1472;BME280;963;42.644;23.336;2023-06-22T00:30:32;94590.38;;;20.45;71.91
1472;BME280;963;42.644;23.336;2023-06-22T00:32:58;94567.66;;;20.76;70.60
1472;BME280;963;42.644;23.336;2023-06-22T00:35:24;94584.25;;;20.87;70.25
1472;BME280;963;42.644;23.336;2023-06-22T00:37:58;94597.41;;;20.78;70.14
1472;BME280;963;42.644;23.336;2023-06-22T00:40:28;94582.28;;;20.91;69.49
1472;BME280;963;42.644;23.336;2023-06-22T00:42:54;94567.38;;;20.90;69.00
1472;BME280;963;42.644;23.336;2023-06-22T00:45:20;94583.09;;;20.88;69.06
1472;BME280;963;42.644;23.336;2023-06-22T00:47:48;94579.19;;;20.93;68.36
1472;BME280;963;42.644;23.336;2023-06-22T00:50:19;94588.56;;;21.01;68.94
1472;BME280;963;42.644;23.336;2023-06-22T00:52:51;94579.31;;;21.06;69.00
1472;BME280;963;42.644;23.336;2023-06-22T00:55:16;94585.81;;;21.05;68.97
1472;BME280;963;42.644;23.336;2023-06-22T00:57:45;94585.41;;;21.06;67.63
1472;BME280;963;42.644;23.336;2023-06-22T01:00:11;94589.72;;;20.80;67.82
1472;BME280;963;42.644;23.336;2023-06-22T01:02:45;94592.63;;;20.89;67.65
1472;BME280;963;42.644;23.336;2023-06-22T01:05:14;94580.97;;;21.00;67.06
1472;BME280;963;42.644;23.336;2023-06-22T01:16:27;94578.69;;;20.98;68.31
1472;BME280;963;42.644;23.336;2023-06-22T01:21:51;94590.63;;;20.94;69.81
1472;BME280;963;42.644;23.336;2023-06-22T01:24:24;94585.09;;;20.84;70.18
1472;BME280;963;42.644;23.336;2023-06-22T01:27:17;94622.44;;;20.88;70.06
1472;BME280;963;42.644;23.336;2023-06-22T01:29:55;94604.22;;;20.83;69.34
1472;BME280;963;42.644;23.336;2023-06-22T01:32:35;94597.47;;;20.75;70.30
1472;BME280;963;42.644;23.336;2023-06-22T01:35:03;94607.06;;;20.72;70.29
1472;BME280;963;42.644;23.336;2023-06-22T01:37:30;94613.56;;;20.71;70.45
1472;BME280;963;42.644;23.336;2023-06-22T01:39:58;94611.72;;;20.68;70.70
1472;BME280;963;42.644;23.336;2023-06-22T01:42:24;94606.38;;;20.68;70.40
1472;BME280;963;42.644;23.336;2023-06-22T01:44:52;94604.19;;;20.63;70.52
1472;BME280;963;42.644;23.336;2023-06-22T01:47:19;94608.84;;;20.59;70.73
1472;BME280;963;42.644;23.336;2023-06-22T01:49:45;94599.31;;;20.58;70.56
1472;BME280;963;42.644;23.336;2023-06-22T01:52:11;94595.94;;;20.54;70.28
1472;BME280;963;42.644;23.336;2023-06-22T01:54:38;94629.19;;;20.53;70.11
1472;BME280;963;42.644;23.336;2023-06-22T01:57:03;94630.81;;;20.47;70.35
1472;BME280;963;42.644;23.336;2023-06-22T01:59:35;94604.09;;;20.47;70.18
1472;BME280;963;42.644;23.336;2023-06-22T02:02:07;94602.66;;;20.39;70.06
1472;BME280;963;42.644;23.336;2023-06-22T02:04:51;94625.91;;;20.42;69.98
1472;BME280;963;42.644;23.336;2023-06-22T02:07:18;94607.66;;;20.37;70.67
1472;BME280;963;42.644;23.336;2023-06-22T02:09:46;94616.47;;;20.34;70.72
1472;BME280;963;42.644;23.336;2023-06-22T02:12:17;94634.78;;;20.35;70.81
1472;BME280;963;42.644;23.336;2023-06-22T02:14:45;94632.91;;;20.32;70.89
1472;BME280;963;42.644;23.336;2023-06-22T02:17:11;94616.94;;;20.28;71.13
1472;BME280;963;42.644;23.336;2023-06-22T02:19:38;94594.19;;;20.20;70.64
1472;BME280;963;42.644;23.336;2023-06-22T02:22:04;94607.09;;;20.25;70.52
1472;BME280;963;42.644;23.336;2023-06-22T02:24:30;94595.34;;;20.19;71.23
1472;BME280;963;42.644;23.336;2023-06-22T02:27:00;94614.41;;;20.21;71.11
1472;BME280;963;42.644;23.336;2023-06-22T02:29:27;94607.19;;;20.18;71.12
1472;BME280;963;42.644;23.336;2023-06-22T02:31:53;94606.44;;;20.18;70.91
1472;BME280;963;42.644;23.336;2023-06-22T02:34:18;94617.59;;;20.13;71.03
1472;BME280;963;42.644;23.336;2023-06-22T02:36:48;94603.13;;;20.10;70.89
1472;BME280;963;42.644;23.336;2023-06-22T02:39:21;94608.13;;;20.08;70.67
1472;BME280;963;42.644;23.336;2023-06-22T02:41:48;94611.97;;;20.07;71.35
1472;BME280;963;42.644;23.336;2023-06-22T02:44:14;94608.91;;;20.05;71.44
1472;BME280;963;42.644;23.336;2023-06-22T02:46:39;94606.25;;;20.05;71.37
1472;BME280;963;42.644;23.336;2023-06-22T02:49:05;94616.94;;;20.05;71.38
1472;BME280;963;42.644;23.336;2023-06-22T02:51:33;94611.59;;;20.05;71.73
1472;BME280;963;42.644;23.336;2023-06-22T02:53:59;94616.59;;;20.03;72.04
1472;BME280;963;42.644;23.336;2023-06-22T02:56:25;94614.66;;;20.04;71.74
1472;BME280;963;42.644;23.336;2023-06-22T02:58:51;94614.25;;;20.05;72.04
1472;BME280;963;42.644;23.336;2023-06-22T03:01:17;94604.09;;;19.96;72.20
1472;BME280;963;42.644;23.336;2023-06-22T03:03:49;94619.38;;;19.96;72.59
1472;BME280;963;42.644;23.336;2023-06-22T03:06:15;94617.16;;;19.91;72.67
1472;BME280;963;42.644;23.336;2023-06-22T03:08:40;94617.25;;;19.84;72.82
1472;BME280;963;42.644;23.336;2023-06-22T03:11:07;94618.78;;;19.85;73.20
1472;BME280;963;42.644;23.336;2023-06-22T03:13:33;94611.69;;;19.98;72.78
1472;BME280;963;42.644;23.336;2023-06-22T03:15:58;94628.41;;;20.02;72.69
1472;BME280;963;42.644;23.336;2023-06-22T03:18:24;94629.94;;;20.03;72.45
1472;BME280;963;42.644;23.336;2023-06-22T03:20:49;94630.03;;;19.96;73.20
1472;BME280;963;42.644;23.336;2023-06-22T03:23:14;94635.38;;;19.96;73.38
1472;BME280;963;42.644;23.336;2023-06-22T03:25:40;94638.88;;;19.93;73.26
1472;BME280;963;42.644;23.336;2023-06-22T03:28:06;94643.63;;;20.05;73.39
1472;BME280;963;42.644;23.336;2023-06-22T03:30:31;94644.78;;;20.04;73.34
1472;BME280;963;42.644;23.336;2023-06-22T03:32:57;94655.47;;;20.04;73.48
1472;BME280;963;42.644;23.336;2023-06-22T03:35:22;94639.50;;;20.01;73.63
1472;BME280;963;42.644;23.336;2023-06-22T03:37:48;94644.44;;;20.02;73.50
1472;BME280;963;42.644;23.336;2023-06-22T03:40:13;94650.88;;;20.08;73.41
1472;BME280;963;42.644;23.336;2023-06-22T03:42:39;94663.75;;;20.13;73.02
1472;BME280;963;42.644;23.336;2023-06-22T03:45:04;94656.44;;;20.17;73.38
1472;BME280;963;42.644;23.336;2023-06-22T03:47:30;94642.09;;;20.08;73.36
1472;BME280;963;42.644;23.336;2023-06-22T03:49:55;94649.72;;;20.06;73.97
1472;BME280;963;42.644;23.336;2023-06-22T03:52:22;94667.19;;;20.14;74.06
1472;BME280;963;42.644;23.336;2023-06-22T03:54:47;94661.78;;;20.17;73.58
1472;BME280;963;42.644;23.336;2023-06-22T03:57:13;94646.63;;;20.11;74.04
1472;BME280;963;42.644;23.336;2023-06-22T03:59:38;94656.69;;;20.26;73.60
1472;BME280;963;42.644;23.336;2023-06-22T04:02:04;94675.72;;;20.28;73.78
1472;BME280;963;42.644;23.336;2023-06-22T04:04:29;94647.56;;;20.24;73.70
1472;BME280;963;42.644;23.336;2023-06-22T04:06:55;94675.66;;;20.32;73.97
1472;BME280;963;42.644;23.336;2023-06-22T04:09:20;94670.78;;;20.27;73.60
1472;BME280;963;42.644;23.336;2023-06-22T04:11:47;94676.09;;;20.30;73.52
1472;BME280;963;42.644;23.336;2023-06-22T04:14:12;94664.56;;;20.34;73.39
1472;BME280;963;42.644;23.336;2023-06-22T04:16:37;94647.84;;;20.29;72.69
1472;BME280;963;42.644;23.336;2023-06-22T04:19:03;94654.34;;;20.28;72.96
1472;BME280;963;42.644;23.336;2023-06-22T04:21:28;94656.28;;;20.01;73.80
1472;BME280;963;42.644;23.336;2023-06-22T04:23:54;94652.41;;;20.06;73.74
1472;BME280;963;42.644;23.336;2023-06-22T04:26:20;94649.59;;;20.16;73.24
1472;BME280;963;42.644;23.336;2023-06-22T04:28:46;94638.16;;;20.16;73.92
1472;BME280;963;42.644;23.336;2023-06-22T04:31:17;94639.50;;;20.27;73.20
1472;BME280;963;42.644;23.336;2023-06-22T04:33:42;94626.38;;;20.13;72.92
1472;BME280;963;42.644;23.336;2023-06-22T04:36:07;94616.03;;;20.15;73.04
1472;BME280;963;42.644;23.336;2023-06-22T04:38:33;94632.88;;;20.36;72.90
1472;BME280;963;42.644;23.336;2023-06-22T04:40:58;94635.94;;;20.34;73.25
1472;BME280;963;42.644;23.336;2023-06-22T04:43:26;94634.19;;;20.51;73.08
1472;BME280;963;42.644;23.336;2023-06-22T04:45:58;94636.66;;;20.62;72.70
1472;BME280;963;42.644;23.336;2023-06-22T04:48:29;94639.63;;;20.67;72.86
1472;BME280;963;42.644;23.336;2023-06-22T04:50:59;94631.25;;;20.65;72.77
1472;BME280;963;42.644;23.336;2023-06-22T04:53:28;94638.25;;;20.79;72.92
1472;BME280;963;42.644;23.336;2023-06-22T04:55:55;94642.06;;;20.81;71.91
1472;BME280;963;42.644;23.336;2023-06-22T04:58:20;94646.19;;;20.86;71.83
1472;BME280;963;42.644;23.336;2023-06-22T05:00:47;94672.03;;;20.92;72.45
1472;BME280;963;42.644;23.336;2023-06-22T05:03:12;94649.94;;;20.88;72.74
1472;BME280;963;42.644;23.336;2023-06-22T05:05:37;94660.38;;;21.03;72.74
1472;BME280;963;42.644;23.336;2023-06-22T05:08:03;94659.91;;;21.08;72.62
1472;BME280;963;42.644;23.336;2023-06-22T05:10:32;94655.66;;;21.10;70.73
1472;BME280;963;42.644;23.336;2023-06-22T05:12:57;94661.19;;;21.23;69.46
1472;BME280;963;42.644;23.336;2023-06-22T05:15:23;94666.81;;;21.29;69.81
1472;BME280;963;42.644;23.336;2023-06-22T05:17:52;94651.09;;;21.31;68.43
1472;BME280;963;42.644;23.336;2023-06-22T05:20:17;94666.50;;;21.43;68.42
1472;BME280;963;42.644;23.336;2023-06-22T05:22:43;94660.25;;;21.49;67.51
1472;BME280;963;42.644;23.336;2023-06-22T05:25:09;94653.00;;;21.50;67.90
1472;BME280;963;42.644;23.336;2023-06-22T05:27:35;94679.56;;;21.61;67.68
1472;BME280;963;42.644;23.336;2023-06-22T05:30:09;94672.53;;;21.67;67.47
1472;BME280;963;42.644;23.336;2023-06-22T05:32:35;94669.88;;;21.67;67.86
1472;BME280;963;42.644;23.336;2023-06-22T05:35:02;94672.53;;;21.67;67.72
1472;BME280;963;42.644;23.336;2023-06-22T05:37:28;94682.84;;;21.68;68.25
1472;BME280;963;42.644;23.336;2023-06-22T05:39:53;94683.53;;;21.72;67.93
1472;BME280;963;42.644;23.336;2023-06-22T05:42:20;94687.97;;;21.79;68.50
1472;BME280;963;42.644;23.336;2023-06-22T05:44:46;94694.25;;;21.89;68.62
1472;BME280;963;42.644;23.336;2023-06-22T05:47:12;94707.44;;;21.99;68.25
1472;BME280;963;42.644;23.336;2023-06-22T05:49:38;94696.25;;;22.04;68.32
1472;BME280;963;42.644;23.336;2023-06-22T05:52:03;94692.81;;;22.04;68.11
1472;BME280;963;42.644;23.336;2023-06-22T05:54:29;94692.59;;;22.14;68.04
1472;BME280;963;42.644;23.336;2023-06-22T05:56:55;94694.34;;;22.05;68.44
1472;BME280;963;42.644;23.336;2023-06-22T05:59:20;94695.94;;;22.19;67.05
1472;BME280;963;42.644;23.336;2023-06-22T06:01:46;94672.81;;;22.08;68.01
1472;BME280;963;42.644;23.336;2023-06-22T06:04:15;94689.25;;;22.27;67.46
1472;BME280;963;42.644;23.336;2023-06-22T06:06:41;94683.22;;;22.23;67.82
1472;BME280;963;42.644;23.336;2023-06-22T06:09:06;94711.03;;;22.45;67.00
1472;BME280;963;42.644;23.336;2023-06-22T06:11:33;94683.41;;;22.48;66.97
1472;BME280;963;42.644;23.336;2023-06-22T06:13:58;94692.69;;;22.43;68.29
1472;BME280;963;42.644;23.336;2023-06-22T06:16:24;94686.22;;;22.57;67.22
1472;BME280;963;42.644;23.336;2023-06-22T06:18:49;94680.03;;;22.60;66.66
1472;BME280;963;42.644;23.336;2023-06-22T06:21:15;94669.16;;;22.67;67.06
1472;BME280;963;42.644;23.336;2023-06-22T06:23:41;94679.69;;;22.74;66.40
1472;BME280;963;42.644;23.336;2023-06-22T06:26:07;94685.25;;;22.67;66.46
1472;BME280;963;42.644;23.336;2023-06-22T06:28:33;94677.25;;;22.80;66.12
1472;BME280;963;42.644;23.336;2023-06-22T06:30:59;94669.38;;;22.89;66.23
1472;BME280;963;42.644;23.336;2023-06-22T06:33:24;94682.84;;;23.02;65.22
1472;BME280;963;42.644;23.336;2023-06-22T06:35:50;94676.47;;;22.96;65.68
1472;BME280;963;42.644;23.336;2023-06-22T06:38:15;94674.28;;;23.07;65.45
1472;BME280;963;42.644;23.336;2023-06-22T06:40:40;94668.66;;;23.01;65.84
1472;BME280;963;42.644;23.336;2023-06-22T06:43:06;94671.94;;;23.09;65.22
1472;BME280;963;42.644;23.336;2023-06-22T06:45:32;94664.78;;;23.19;64.89
1472;BME280;963;42.644;23.336;2023-06-22T06:47:59;94666.84;;;23.27;64.62
1472;BME280;963;42.644;23.336;2023-06-22T06:50:25;94669.00;;;23.32;64.66
1472;BME280;963;42.644;23.336;2023-06-22T06:52:51;94661.84;;;23.42;64.31
1472;BME280;963;42.644;23.336;2023-06-22T06:55:16;94653.16;;;23.51;64.44
1472;BME280;963;42.644;23.336;2023-06-22T06:57:43;94652.72;;;23.52;64.30
1472;BME280;963;42.644;23.336;2023-06-22T07:00:12;94648.44;;;23.55;63.93
1472;BME280;963;42.644;23.336;2023-06-22T07:02:40;94663.19;;;23.63;64.27
1472;BME280;963;42.644;23.336;2023-06-22T07:05:06;94666.53;;;23.67;64.96
1472;BME280;963;42.644;23.336;2023-06-22T07:07:32;94631.63;;;23.80;64.74
1472;BME280;963;42.644;23.336;2023-06-22T07:09:57;94638.28;;;24.00;64.06
1472;BME280;963;42.644;23.336;2023-06-22T07:12:23;94649.56;;;24.21;63.94
1472;BME280;963;42.644;23.336;2023-06-22T07:14:48;94650.66;;;24.36;63.15
1472;BME280;963;42.644;23.336;2023-06-22T07:17:15;94646.31;;;24.51;62.80
1472;BME280;963;42.644;23.336;2023-06-22T07:19:40;94645.03;;;24.56;62.63
1472;BME280;963;42.644;23.336;2023-06-22T07:22:07;94644.16;;;24.46;64.14
1472;BME280;963;42.644;23.336;2023-06-22T07:24:33;94652.44;;;24.65;63.72
1472;BME280;963;42.644;23.336;2023-06-22T07:26:58;94650.81;;;24.67;62.96
1472;BME280;963;42.644;23.336;2023-06-22T07:29:25;94653.38;;;24.71;62.53
1472;BME280;963;42.644;23.336;2023-06-22T07:31:52;94656.16;;;24.80;62.48
1472;BME280;963;42.644;23.336;2023-06-22T07:34:17;94651.19;;;24.91;62.04
1472;BME280;963;42.644;23.336;2023-06-22T07:36:43;94642.44;;;24.87;62.17
1472;BME280;963;42.644;23.336;2023-06-22T07:39:09;94647.09;;;24.99;61.73
1472;BME280;963;42.644;23.336;2023-06-22T07:41:34;94661.34;;;25.09;61.09
1472;BME280;963;42.644;23.336;2023-06-22T07:44:00;94657.72;;;25.03;61.77
1472;BME280;963;42.644;23.336;2023-06-22T07:46:25;94665.44;;;25.13;60.99
1472;BME280;963;42.644;23.336;2023-06-22T07:48:51;94654.94;;;24.93;60.69
1472;BME280;963;42.644;23.336;2023-06-22T07:51:16;94665.75;;;25.15;61.20
1472;BME280;963;42.644;23.336;2023-06-22T07:53:42;94660.66;;;25.17;62.08
1472;BME280;963;42.644;23.336;2023-06-22T07:56:10;94652.34;;;25.24;61.34
1472;BME280;963;42.644;23.336;2023-06-22T07:58:36;94650.34;;;25.38;61.10
1472;BME280;963;42.644;23.336;2023-06-22T08:01:01;94650.41;;;25.47;59.87
1472;BME280;963;42.644;23.336;2023-06-22T08:03:27;94648.66;;;25.62;59.16
1472;BME280;963;42.644;23.336;2023-06-22T08:05:53;94652.78;;;25.67;59.18
1472;BME280;963;42.644;23.336;2023-06-22T08:08:18;94637.03;;;25.65;58.18
1472;BME280;963;42.644;23.336;2023-06-22T08:10:44;94643.81;;;25.70;57.83
1472;BME280;963;42.644;23.336;2023-06-22T08:13:10;94635.28;;;25.71;57.91
1472;BME280;963;42.644;23.336;2023-06-22T08:15:35;94644.03;;;25.84;58.68
1472;BME280;963;42.644;23.336;2023-06-22T08:18:00;94661.34;;;26.05;57.99
1472;BME280;963;42.644;23.336;2023-06-22T08:20:26;94640.41;;;26.18;57.95
1472;BME280;963;42.644;23.336;2023-06-22T08:22:53;94650.47;;;26.27;57.10
1472;BME280;963;42.644;23.336;2023-06-22T08:25:19;94636.38;;;26.23;57.74
1472;BME280;963;42.644;23.336;2023-06-22T08:27:46;94629.94;;;26.30;58.30
1472;BME280;963;42.644;23.336;2023-06-22T08:30:14;94638.88;;;26.39;57.59
1472;BME280;963;42.644;23.336;2023-06-22T08:32:40;94623.88;;;26.47;57.18
1472;BME280;963;42.644;23.336;2023-06-22T08:35:06;94634.53;;;26.51;56.78
1472;BME280;963;42.644;23.336;2023-06-22T08:37:34;94619.41;;;26.54;56.31
1472;BME280;963;42.644;23.336;2023-06-22T08:40:03;94618.94;;;26.55;56.67
1472;BME280;963;42.644;23.336;2023-06-22T08:42:36;94630.19;;;26.63;57.05
1472;BME280;963;42.644;23.336;2023-06-22T08:45:02;94626.91;;;26.68;56.73
1472;BME280;963;42.644;23.336;2023-06-22T08:47:28;94643.69;;;26.72;56.83
1472;BME280;963;42.644;23.336;2023-06-22T08:49:53;94638.91;;;26.76;57.51
1472;BME280;963;42.644;23.336;2023-06-22T08:52:19;94633.19;;;26.65;57.50
1472;BME280;963;42.644;23.336;2023-06-22T08:54:45;94624.66;;;26.66;56.23
1472;BME280;963;42.644;23.336;2023-06-22T08:57:11;94620.28;;;26.60;56.50
1472;BME280;963;42.644;23.336;2023-06-22T08:59:36;94622.41;;;26.56;57.15
1472;BME280;963;42.644;23.336;2023-06-22T09:02:02;94627.81;;;26.74;56.66
1472;BME280;963;42.644;23.336;2023-06-22T09:04:27;94626.78;;;26.90;55.96
1472;BME280;963;42.644;23.336;2023-06-22T09:06:52;94607.72;;;26.84;55.89
1472;BME280;963;42.644;23.336;2023-06-22T09:09:18;94610.41;;;26.93;55.37
1472;BME280;963;42.644;23.336;2023-06-22T09:11:44;94594.38;;;26.99;54.47
1472;BME280;963;42.644;23.336;2023-06-22T09:14:10;94596.19;;;27.02;53.94
1472;BME280;963;42.644;23.336;2023-06-22T09:16:36;94605.31;;;26.86;52.59
1472;BME280;963;42.644;23.336;2023-06-22T09:19:01;94611.91;;;26.94;50.84
1472;BME280;963;42.644;23.336;2023-06-22T09:21:27;94594.53;;;27.04;50.66
1472;BME280;963;42.644;23.336;2023-06-22T09:23:52;94609.53;;;27.15;51.58
1472;BME280;963;42.644;23.336;2023-06-22T09:26:18;94608.31;;;27.25;52.07
1472;BME280;963;42.644;23.336;2023-06-22T09:28:44;94618.81;;;27.32;51.58
1472;BME280;963;42.644;23.336;2023-06-22T09:31:09;94610.38;;;27.39;50.88
1472;BME280;963;42.644;23.336;2023-06-22T09:33:36;94608.59;;;27.36;50.63
1472;BME280;963;42.644;23.336;2023-06-22T09:36:04;94615.53;;;27.19;51.16
1472;BME280;963;42.644;23.336;2023-06-22T09:38:30;94625.41;;;27.40;52.09
1472;BME280;963;42.644;23.336;2023-06-22T09:40:55;94617.72;;;27.48;51.85
1472;BME280;963;42.644;23.336;2023-06-22T09:43:21;94608.56;;;27.54;52.22
1472;BME280;963;42.644;23.336;2023-06-22T09:45:47;94617.09;;;27.71;50.63
1472;BME280;963;42.644;23.336;2023-06-22T09:48:13;94610.94;;;27.70;49.47
1472;BME280;963;42.644;23.336;2023-06-22T09:50:38;94610.28;;;27.85;49.63
1472;BME280;963;42.644;23.336;2023-06-22T09:53:03;94617.50;;;27.79;49.36
1472;BME280;963;42.644;23.336;2023-06-22T09:55:29;94615.97;;;27.87;50.81
1472;BME280;963;42.644;23.336;2023-06-22T09:57:54;94603.19;;;27.87;49.82
1472;BME280;963;42.644;23.336;2023-06-22T10:00:21;94606.47;;;28.00;49.33
1472;BME280;963;42.644;23.336;2023-06-22T10:02:47;94589.19;;;27.98;49.58
1472;BME280;963;42.644;23.336;2023-06-22T10:05:13;94590.66;;;28.08;49.59
1472;BME280;963;42.644;23.336;2023-06-22T10:07:38;94597.03;;;27.96;49.65
1472;BME280;963;42.644;23.336;2023-06-22T10:10:08;94587.66;;;28.06;49.24
1472;BME280;963;42.644;23.336;2023-06-22T10:12:33;94589.09;;;28.25;48.17
1472;BME280;963;42.644;23.336;2023-06-22T10:14:58;94591.63;;;28.20;47.12
1472;BME280;963;42.644;23.336;2023-06-22T10:17:24;94588.63;;;28.27;47.09
1472;BME280;963;42.644;23.336;2023-06-22T10:19:49;94587.81;;;28.36;47.02
1472;BME280;963;42.644;23.336;2023-06-22T10:22:15;94586.53;;;28.46;47.80
1472;BME280;963;42.644;23.336;2023-06-22T10:24:40;94579.28;;;28.52;47.45
1472;BME280;963;42.644;23.336;2023-06-22T10:27:10;94584.75;;;28.67;47.26
1472;BME280;963;42.644;23.336;2023-06-22T10:29:36;94595.31;;;28.79;47.01
1472;BME280;963;42.644;23.336;2023-06-22T10:32:01;94592.28;;;28.86;47.35
1472;BME280;963;42.644;23.336;2023-06-22T10:34:27;94576.63;;;29.05;46.80
1472;BME280;963;42.644;23.336;2023-06-22T10:36:52;94578.78;;;29.16;44.69
1472;BME280;963;42.644;23.336;2023-06-22T10:39:18;94565.59;;;29.23;45.94
1472;BME280;963;42.644;23.336;2023-06-22T10:41:44;94585.22;;;29.33;44.22
1472;BME280;963;42.644;23.336;2023-06-22T10:44:09;94575.41;;;29.36;44.50
1472;BME280;963;42.644;23.336;2023-06-22T10:46:34;94566.19;;;29.42;45.34
1472;BME280;963;42.644;23.336;2023-06-22T10:49:00;94570.47;;;29.64;44.79
1472;BME280;963;42.644;23.336;2023-06-22T10:51:25;94567.63;;;29.73;44.01
1472;BME280;963;42.644;23.336;2023-06-22T10:53:53;94572.91;;;29.76;43.65
1472;BME280;963;42.644;23.336;2023-06-22T10:56:18;94565.66;;;29.88;42.98
1472;BME280;963;42.644;23.336;2023-06-22T10:58:45;94557.88;;;29.96;43.15
1472;BME280;963;42.644;23.336;2023-06-22T11:01:11;94555.81;;;30.05;43.45
1472;BME280;963;42.644;23.336;2023-06-22T11:03:36;94563.09;;;30.14;43.59
1472;BME280;963;42.644;23.336;2023-06-22T11:06:01;94565.47;;;30.27;43.15
1472;BME280;963;42.644;23.336;2023-06-22T11:08:27;94565.69;;;30.23;43.47
1472;BME280;963;42.644;23.336;2023-06-22T11:10:52;94559.09;;;30.30;43.80
1472;BME280;963;42.644;23.336;2023-06-22T11:13:18;94556.41;;;30.50;41.90
1472;BME280;963;42.644;23.336;2023-06-22T11:15:43;94559.75;;;29.90;41.64
1472;BME280;963;42.644;23.336;2023-06-22T11:18:08;94554.66;;;29.77;42.17
1472;BME280;963;42.644;23.336;2023-06-22T11:20:34;94540.16;;;29.80;42.14
1472;BME280;963;42.644;23.336;2023-06-22T11:23:04;94566.28;;;30.12;42.92
1472;BME280;963;42.644;23.336;2023-06-22T11:25:30;94559.22;;;30.21;43.50
1472;BME280;963;42.644;23.336;2023-06-22T11:27:55;94545.94;;;30.23;42.79
1472;BME280;963;42.644;23.336;2023-06-22T11:30:21;94549.06;;;30.56;43.20
1472;BME280;963;42.644;23.336;2023-06-22T11:32:46;94545.53;;;30.50;42.10
1472;BME280;963;42.644;23.336;2023-06-22T11:35:12;94542.34;;;30.31;41.50
1472;BME280;963;42.644;23.336;2023-06-22T11:37:37;94534.19;;;30.31;41.85
1472;BME280;963;42.644;23.336;2023-06-22T11:40:03;94539.16;;;30.12;42.01
1472;BME280;963;42.644;23.336;2023-06-22T11:42:30;94542.81;;;30.30;41.11
1472;BME280;963;42.644;23.336;2023-06-22T11:44:56;94540.22;;;30.21;42.13
1472;BME280;963;42.644;23.336;2023-06-22T11:47:21;94532.38;;;30.23;42.23
1472;BME280;963;42.644;23.336;2023-06-22T11:49:46;94536.28;;;30.22;42.11
1472;BME280;963;42.644;23.336;2023-06-22T11:52:12;94525.78;;;30.29;41.98
1472;BME280;963;42.644;23.336;2023-06-22T11:54:37;94527.44;;;29.71;42.68
1472;BME280;963;42.644;23.336;2023-06-22T11:57:04;94506.78;;;29.74;42.15
1472;BME280;963;42.644;23.336;2023-06-22T11:59:29;94517.13;;;29.11;43.34
1472;BME280;963;42.644;23.336;2023-06-22T12:01:54;94522.53;;;29.11;43.72
1472;BME280;963;42.644;23.336;2023-06-22T12:04:20;94513.81;;;29.36;43.87
1472;BME280;963;42.644;23.336;2023-06-22T12:06:45;94530.72;;;29.61;43.78
1472;BME280;963;42.644;23.336;2023-06-22T12:09:11;94536.63;;;29.74;43.31
1472;BME280;963;42.644;23.336;2023-06-22T12:11:38;94537.84;;;29.93;43.67
1472;BME280;963;42.644;23.336;2023-06-22T12:14:04;94518.94;;;29.99;43.38
1472;BME280;963;42.644;23.336;2023-06-22T12:16:29;94550.28;;;30.14;43.23
1472;BME280;963;42.644;23.336;2023-06-22T12:18:55;94543.53;;;30.10;42.55
1472;BME280;963;42.644;23.336;2023-06-22T12:21:20;94538.69;;;29.99;43.54
1472;BME280;963;42.644;23.336;2023-06-22T12:23:46;94522.88;;;29.98;44.03
1472;BME280;963;42.644;23.336;2023-06-22T12:26:11;94526.88;;;29.82;45.07
1472;BME280;963;42.644;23.336;2023-06-22T12:28:36;94531.75;;;29.78;45.06
1472;BME280;963;42.644;23.336;2023-06-22T12:31:02;94552.00;;;29.47;46.91
1472;BME280;963;42.644;23.336;2023-06-22T12:33:27;94561.13;;;29.20;48.49
1472;BME280;963;42.644;23.336;2023-06-22T12:35:53;94562.88;;;28.94;49.23
1472;BME280;963;42.644;23.336;2023-06-22T12:38:18;94584.78;;;28.81;49.83
1472;BME280;963;42.644;23.336;2023-06-22T12:40:44;94587.63;;;28.87;50.56
1472;BME280;963;42.644;23.336;2023-06-22T12:43:09;94588.81;;;28.86;51.08
1472;BME280;963;42.644;23.336;2023-06-22T12:45:34;94607.72;;;28.71;52.78
1472;BME280;963;42.644;23.336;2023-06-22T12:48:00;94597.66;;;28.48;52.96
1472;BME280;963;42.644;23.336;2023-06-22T12:50:26;94602.56;;;28.01;56.96
1472;BME280;963;42.644;23.336;2023-06-22T12:52:51;94609.38;;;27.88;55.78
1472;BME280;963;42.644;23.336;2023-06-22T12:55:17;94618.25;;;27.19;56.70
1472;BME280;963;42.644;23.336;2023-06-22T12:57:42;94625.72;;;27.33;55.30
1472;BME280;963;42.644;23.336;2023-06-22T13:00:08;94609.50;;;27.33;55.81
1472;BME280;963;42.644;23.336;2023-06-22T13:02:35;94608.91;;;27.29;57.21
1472;BME280;963;42.644;23.336;2023-06-22T13:05:01;94605.00;;;27.30;57.83
1472;BME280;963;42.644;23.336;2023-06-22T13:07:27;94606.97;;;27.20;58.72
1472;BME280;963;42.644;23.336;2023-06-22T13:09:52;94628.69;;;26.62;60.48
1472;BME280;963;42.644;23.336;2023-06-22T13:12:19;94629.66;;;26.28;62.90
1472;BME280;963;42.644;23.336;2023-06-22T13:14:45;94620.56;;;25.94;65.76
1472;BME280;963;42.644;23.336;2023-06-22T13:17:12;94608.47;;;25.46;69.07
1472;BME280;963;42.644;23.336;2023-06-22T13:19:37;94610.44;;;25.23;69.06
1472;BME280;963;42.644;23.336;2023-06-22T13:22:03;94604.56;;;25.16;65.67
1472;BME280;963;42.644;23.336;2023-06-22T13:24:29;94613.03;;;25.05;68.24
1472;BME280;963;42.644;23.336;2023-06-22T13:26:54;94608.88;;;25.13;67.11
1472;BME280;963;42.644;23.336;2023-06-22T13:29:20;94613.91;;;25.02;66.45